Airfield :
LOGIN :

Register | Disclaimer

   EN    FR    IT 

 










Legend :    VFR   Marginal VFR   IFR   Intensive IFR   Very Intensive IFR
Visi :
Ceiling :
>= 8 km
>= 3000ft
5 to 8 km
1000 to 3000 ft
1500m to 5 km
500 to 1000 ft
800 to 1500m
200 to 500 ft
< 800m
< 200 ft
Symbols :   Thunderstorms  Fog  Heavy snow  Heavy precipitations  Wind > 20 kt
SIGMETs :     Misc.  Thunderstorms  Icing  Turbulence  Mountain Waves  Volcanic Ashes







- Airport Elevation : 659 ft
- IATA code : LGG


EBLG - Liège

CURRENT METAR :
  • 192150Z 25005KT 9999 SCT015 BKN028 18/16 Q1025 NOSIG

EXPIRED METARs :
  • 192120Z 27003KT 9999 FEW020 BKN028 18/16 Q1025 NOSIG
  • 192050Z 27002KT 9999 FEW020 BKN028 18/16 Q1025 NOSIG
  • 192020Z 26003KT 9999 FEW020 BKN030 19/16 Q1025 NOSIG
  • 191950Z 27003KT 9999 FEW020 BKN030 19/16 Q1024 NOSIG
  • 191920Z VRB02KT 9999 FEW018 BKN027 19/16 Q1024 NOSIG

TAF TAF EBLG
Valid from the 19 at 18:00 until the 21 at 00:00 UTC


191707Z 1918/2024 26006KT 9999 FEW020 BKN035
PROB30
TEMPO 2004/2007 BKN010
No reported NOTAMs for that airfield.



MET'MAP, your aeronautical weather chart ! - Copyright ORBIFLY December 2007 - Disclaimer

ORBIFLY MET'MAP TEAM :

Programming & Development : Alexandra Zaïnal
Concept & Development : Baudouin d'Aumeries
Co-Development & Prog : Marc-Olivier Méhu
Technical & hardware support : Manuel Goepfert

Contact : metmap@orbifly.com




SOURCES & CREDITS :

   NOAA